createdAt,value
2018-08-11T00:00:34.738Z,1.30
2018-08-11T00:03:03.316Z,1.27
2018-08-11T00:05:33.020Z,1.40
2018-08-11T00:08:01.701Z,1.70
2018-08-11T00:10:30.465Z,1.30
2018-08-11T00:12:59.048Z,1.37
2018-08-11T00:15:27.634Z,1.30
2018-08-11T00:17:56.293Z,1.87
2018-08-11T00:20:26.778Z,2.37
2018-08-11T00:22:55.406Z,2.30
2018-08-11T00:25:24.019Z,2.60
2018-08-11T00:27:52.679Z,2.50
2018-08-11T00:30:21.632Z,2.20
2018-08-11T00:32:50.282Z,1.73
2018-08-11T00:35:18.882Z,2.37
2018-08-11T00:37:47.558Z,1.97
2018-08-11T00:40:17.491Z,1.80
2018-08-11T00:42:47.111Z,1.87
2018-08-11T00:45:16.396Z,2.03
2018-08-11T00:47:45.111Z,1.80
2018-08-11T00:50:19.135Z,1.63
2018-08-11T00:52:47.803Z,1.57
2018-08-11T00:55:16.401Z,1.60
2018-08-11T00:57:46.023Z,1.80
2018-08-11T01:00:19.011Z,1.60
2018-08-11T01:02:47.752Z,1.50
2018-08-11T01:05:19.000Z,1.63
2018-08-11T01:07:48.115Z,1.70
2018-08-11T01:10:17.117Z,1.57
2018-08-11T01:12:46.578Z,1.50
2018-08-11T01:15:18.152Z,1.47
2018-08-11T01:17:47.529Z,1.57
2018-08-11T01:20:16.459Z,1.70
2018-08-11T01:22:46.038Z,1.80
2018-08-11T01:25:15.167Z,1.70
2018-08-11T01:27:43.753Z,1.60
2018-08-11T01:30:14.590Z,1.47
2018-08-11T01:32:43.171Z,1.50
2018-08-11T01:35:12.179Z,1.80
2018-08-11T01:37:41.571Z,1.83
2018-08-11T01:40:11.722Z,1.73
2018-08-11T01:42:41.272Z,1.40
2018-08-11T01:45:11.106Z,1.60
2018-08-11T01:47:40.203Z,1.93
2018-08-11T01:50:10.221Z,1.60
2018-08-11T01:52:39.591Z,1.87
2018-08-11T01:55:08.207Z,1.87
2018-08-11T01:57:36.767Z,1.90
2018-08-11T02:00:07.298Z,1.90
2018-08-11T02:02:35.887Z,1.70
2018-08-11T02:05:04.822Z,1.80
2018-08-11T02:07:33.428Z,1.90
2018-08-11T02:10:02.065Z,1.73
2018-08-11T02:12:30.692Z,1.70
2018-08-11T02:14:59.300Z,2.10
2018-08-11T02:17:27.886Z,2.33
2018-08-11T02:19:56.476Z,1.60
2018-08-11T02:22:25.141Z,1.70
2018-08-11T02:24:53.795Z,1.67
2018-08-11T02:27:22.389Z,1.80
2018-08-11T02:29:50.957Z,1.60
2018-08-11T02:32:19.673Z,1.70
2018-08-11T02:34:48.262Z,1.60
2018-08-11T02:37:16.889Z,1.60
2018-08-11T02:39:45.445Z,2.27
2018-08-11T02:42:14.017Z,2.17
2018-08-11T02:44:42.603Z,1.87
2018-08-11T02:47:11.284Z,1.67
2018-08-11T02:49:40.072Z,1.70
2018-08-11T02:52:08.705Z,1.60
2018-08-11T02:54:37.300Z,1.73
2018-08-11T02:57:06.155Z,2.13
2018-08-11T02:59:34.733Z,1.87
2018-08-11T03:02:03.345Z,1.90
2018-08-11T03:04:31.929Z,1.87
2018-08-11T03:07:00.505Z,2.00
2018-08-11T03:09:29.094Z,2.03
2018-08-11T03:11:57.646Z,2.10
2018-08-11T03:14:26.278Z,2.07
2018-08-11T03:16:54.877Z,1.50
2018-08-11T03:19:23.669Z,1.67
2018-08-11T03:21:52.254Z,2.33
2018-08-11T03:24:20.838Z,2.00
2018-08-11T03:26:49.399Z,1.83
2018-08-11T03:29:17.990Z,2.43
2018-08-11T03:31:46.567Z,1.93
2018-08-11T03:34:15.169Z,1.87
2018-08-11T03:36:43.752Z,1.70
2018-08-11T03:39:13.015Z,1.57
2018-08-11T03:41:42.181Z,1.80
2018-08-11T03:44:11.197Z,1.63
2018-08-11T03:46:39.897Z,1.60
2018-08-11T03:49:08.496Z,2.13
2018-08-11T03:51:37.061Z,1.70
2018-08-11T03:54:05.725Z,1.80
2018-08-11T03:56:34.278Z,1.80
2018-08-11T03:59:02.950Z,1.67
2018-08-11T04:01:31.493Z,1.80
2018-08-11T04:04:00.057Z,2.20
2018-08-11T04:06:28.621Z,2.20
2018-08-11T04:08:57.201Z,2.20
2018-08-11T04:11:25.789Z,2.10
2018-08-11T04:13:54.334Z,2.20
2018-08-11T04:16:22.901Z,2.03
2018-08-11T04:18:51.459Z,2.00
2018-08-11T04:21:20.059Z,1.60
2018-08-11T04:23:48.612Z,2.13
2018-08-11T04:26:17.170Z,1.80
2018-08-11T04:28:45.714Z,2.13
2018-08-11T04:31:14.281Z,1.70
2018-08-11T04:33:42.814Z,1.80
2018-08-11T04:36:11.374Z,2.13
2018-08-11T04:38:39.957Z,2.20
2018-08-11T04:41:08.691Z,2.27
2018-08-11T04:43:37.257Z,2.37
2018-08-11T04:46:05.813Z,2.10
2018-08-11T04:48:34.452Z,2.00
2018-08-11T04:51:03.093Z,2.10
2018-08-11T04:53:31.661Z,1.80
2018-08-11T04:56:00.245Z,1.87
2018-08-11T04:58:28.841Z,2.13
2018-08-11T05:00:57.453Z,1.43
2018-08-11T05:03:26.129Z,1.87
2018-08-11T05:05:54.708Z,1.90
2018-08-11T05:08:23.331Z,1.60
2018-08-11T05:10:51.872Z,1.97
2018-08-11T05:13:20.536Z,1.60
2018-08-11T05:15:49.141Z,1.47
2018-08-11T05:18:18.105Z,1.77
2018-08-11T05:20:46.706Z,1.83
2018-08-11T05:23:15.310Z,1.90
2018-08-11T05:25:43.917Z,1.80
2018-08-11T05:28:12.569Z,1.60
2018-08-11T05:30:41.121Z,1.70
2018-08-11T05:33:09.787Z,1.60
2018-08-11T05:35:38.379Z,1.77
2018-08-11T05:38:06.997Z,1.70
2018-08-11T05:40:35.598Z,1.80
2018-08-11T05:43:04.216Z,1.77
2018-08-11T05:45:32.791Z,1.97
2018-08-11T05:48:01.481Z,1.50
2018-08-11T05:50:30.035Z,2.13
2018-08-11T05:52:58.669Z,1.60
2018-08-11T05:55:27.326Z,1.43
2018-08-11T05:57:56.050Z,1.67
2018-08-11T06:00:24.725Z,1.63
2018-08-11T06:02:53.353Z,1.63
2018-08-11T06:05:22.282Z,1.63
2018-08-11T06:07:50.920Z,1.17
2018-08-11T06:10:19.697Z,1.40
2018-08-11T06:12:48.323Z,1.30
2018-08-11T06:15:16.949Z,1.77
2018-08-11T06:17:45.592Z,1.20
2018-08-11T06:20:14.373Z,1.07
2018-08-11T06:22:43.470Z,1.40
2018-08-11T06:25:12.162Z,1.10
2018-08-11T06:27:41.195Z,0.90
2018-08-11T06:30:10.629Z,1.00
2018-08-11T06:32:39.609Z,1.10
2018-08-11T06:35:08.622Z,1.50
2018-08-11T06:37:37.607Z,1.10
2018-08-11T06:40:06.753Z,0.90
2018-08-11T06:42:35.614Z,1.50
2018-08-11T06:45:04.963Z,1.00
2018-08-11T06:47:33.736Z,1.33
2018-08-11T06:50:02.510Z,1.20
2018-08-11T06:52:31.203Z,1.20
2018-08-11T06:55:00.035Z,1.20
2018-08-11T06:57:28.849Z,0.93
2018-08-11T06:59:57.543Z,1.00
2018-08-11T07:02:26.245Z,1.30
2018-08-11T07:04:54.961Z,1.40
2018-08-11T07:07:23.730Z,1.20
2018-08-11T07:09:52.471Z,1.30
2018-08-11T07:12:21.331Z,0.90
2018-08-11T07:14:50.083Z,1.20
2018-08-11T07:17:18.837Z,0.90
2018-08-11T07:19:47.558Z,1.30
2018-08-11T07:22:16.288Z,1.00
2018-08-11T07:24:46.059Z,1.30
2018-08-11T07:27:14.932Z,1.10
2018-08-11T07:29:43.672Z,1.30
2018-08-11T07:32:12.429Z,1.00
2018-08-11T07:34:41.124Z,1.17
2018-08-11T07:37:09.914Z,1.10
2018-08-11T07:39:38.692Z,1.27
2018-08-11T07:42:07.515Z,1.07
2018-08-11T07:44:36.356Z,1.53
2018-08-11T07:47:05.509Z,1.30
2018-08-11T07:49:34.457Z,1.30
2018-08-11T07:52:03.336Z,1.20
2018-08-11T07:54:32.195Z,1.50
2018-08-11T07:57:00.953Z,1.30
2018-08-11T07:59:29.745Z,1.67
2018-08-11T08:01:58.434Z,1.50
2018-08-11T08:04:27.141Z,1.27
2018-08-11T08:06:56.008Z,1.10
2018-08-11T08:09:28.785Z,1.80
2018-08-11T08:11:57.527Z,0.90
2018-08-11T08:14:26.667Z,1.17
2018-08-11T08:16:55.492Z,1.27
2018-08-11T08:19:24.182Z,0.97
2018-08-11T08:21:53.285Z,1.50
2018-08-11T08:24:22.116Z,1.40
2018-08-11T08:26:50.912Z,1.30
2018-08-11T08:29:20.609Z,1.20
2018-08-11T08:31:49.348Z,1.67
2018-08-11T08:34:18.033Z,1.10
2018-08-11T08:36:46.645Z,1.13
2018-08-11T08:39:15.435Z,1.50
2018-08-11T08:41:44.294Z,1.20
2018-08-11T08:44:13.031Z,1.20
2018-08-11T08:46:42.020Z,1.17
2018-08-11T08:49:10.885Z,1.07
2018-08-11T08:51:39.607Z,2.30
2018-08-11T08:54:08.234Z,1.40
2018-08-11T08:56:36.857Z,1.37
2018-08-11T08:59:05.500Z,1.20
2018-08-11T09:01:34.413Z,1.00
2018-08-11T09:04:03.006Z,1.20
2018-08-11T09:06:31.582Z,1.10
2018-08-11T09:09:00.213Z,1.07
2018-08-11T09:11:28.809Z,1.20
2018-08-11T09:13:57.389Z,0.97
2018-08-11T09:16:26.031Z,1.73
2018-08-11T09:18:54.647Z,1.10
2018-08-11T09:21:23.337Z,1.07
2018-08-11T09:23:51.915Z,1.63
2018-08-11T09:26:20.490Z,0.90
2018-08-11T09:28:49.147Z,1.00
2018-08-11T09:31:17.730Z,1.40
2018-08-11T09:33:46.291Z,1.20
2018-08-11T09:36:14.842Z,1.23
2018-08-11T09:38:43.425Z,1.10
2018-08-11T09:41:12.058Z,0.80
2018-08-11T09:43:40.649Z,1.20
2018-08-11T09:46:09.294Z,1.30
2018-08-11T09:48:37.897Z,1.30
2018-08-11T09:51:06.572Z,0.93
2018-08-11T09:53:35.166Z,1.20
2018-08-11T09:56:03.793Z,1.57
2018-08-11T09:58:32.468Z,1.00
2018-08-11T10:01:06.383Z,1.10
2018-08-11T10:03:35.155Z,1.00
2018-08-11T10:06:03.981Z,1.00
2018-08-11T10:08:32.716Z,1.10
2018-08-11T10:11:01.381Z,0.90
2018-08-11T10:13:30.010Z,0.87
2018-08-11T10:15:58.625Z,0.90
2018-08-11T10:18:27.894Z,1.00
2018-08-11T10:20:56.570Z,0.87
2018-08-11T10:23:25.217Z,1.13
2018-08-11T10:25:53.912Z,1.20
2018-08-11T10:28:22.568Z,1.10
2018-08-11T10:30:51.858Z,1.00
2018-08-11T10:33:20.898Z,0.93
2018-08-11T10:35:49.905Z,0.80
2018-08-11T10:38:18.879Z,0.80
2018-08-11T10:40:47.892Z,1.00
2018-08-11T10:43:16.732Z,0.80
2018-08-11T10:45:45.797Z,0.93
2018-08-11T10:48:14.450Z,1.10
2018-08-11T10:50:43.056Z,1.10
2018-08-11T10:53:11.644Z,1.00
2018-08-11T10:55:40.453Z,0.80
2018-08-11T10:58:09.178Z,0.83
2018-08-11T11:00:37.858Z,0.90
2018-08-11T11:03:07.221Z,1.10
2018-08-11T11:05:35.825Z,1.20
2018-08-11T11:08:04.705Z,1.00
2018-08-11T11:10:33.457Z,1.00
2018-08-11T11:13:02.101Z,0.80
2018-08-11T11:15:30.790Z,0.90
2018-08-11T11:17:59.540Z,1.00
2018-08-11T11:20:28.199Z,1.00
2018-08-11T11:22:56.786Z,1.20
2018-08-11T11:25:25.367Z,0.80
2018-08-11T11:27:54.049Z,1.53
2018-08-11T11:30:22.630Z,0.80
2018-08-11T11:32:51.202Z,1.00
2018-08-11T11:35:19.853Z,1.00
2018-08-11T11:37:48.604Z,1.20
2018-08-11T11:40:17.212Z,1.20
2018-08-11T11:42:45.830Z,0.83
2018-08-11T11:45:14.486Z,0.90
2018-08-11T11:47:43.171Z,0.80
2018-08-11T11:50:11.818Z,1.00
2018-08-11T11:52:40.376Z,0.90
2018-08-11T11:55:09.007Z,1.37
2018-08-11T11:57:37.692Z,0.70
2018-08-11T12:00:06.495Z,1.50
2018-08-11T12:02:35.328Z,1.10
2018-08-11T12:05:04.002Z,0.80
2018-08-11T12:07:32.693Z,0.80
2018-08-11T12:10:01.464Z,0.70
2018-08-11T12:12:30.006Z,0.67
2018-08-11T12:14:58.654Z,0.73
2018-08-11T12:17:27.350Z,0.67
2018-08-11T12:19:56.010Z,0.90
2018-08-11T12:22:24.678Z,0.70
2018-08-11T12:24:53.273Z,0.70
2018-08-11T12:27:21.813Z,0.70
2018-08-11T12:29:50.422Z,0.70
2018-08-11T12:32:19.027Z,0.83
2018-08-11T12:34:47.653Z,0.63
2018-08-11T12:37:16.240Z,0.80
2018-08-11T12:39:44.830Z,0.87
2018-08-11T12:42:13.430Z,0.70
2018-08-11T12:44:42.148Z,0.63
2018-08-11T12:47:10.804Z,0.70
2018-08-11T12:49:39.628Z,0.80
2018-08-11T12:52:08.320Z,0.60
2018-08-11T12:54:36.933Z,0.73
2018-08-11T12:57:05.589Z,0.60
2018-08-11T12:59:34.336Z,0.80
2018-08-11T13:02:03.032Z,0.80
2018-08-11T13:04:31.662Z,0.90
2018-08-11T13:07:00.417Z,0.87
2018-08-11T13:09:28.991Z,0.70
2018-08-11T13:11:57.601Z,0.70
2018-08-11T13:14:26.276Z,0.63
2018-08-11T13:16:55.030Z,0.90
2018-08-11T13:19:23.679Z,0.87
2018-08-11T13:21:52.364Z,0.70
2018-08-11T13:24:21.098Z,0.77
2018-08-11T13:26:49.810Z,0.90
2018-08-11T13:29:18.399Z,0.63
2018-08-11T13:31:47.262Z,0.70
2018-08-11T13:34:15.945Z,0.90
2018-08-11T13:36:44.601Z,0.60
2018-08-11T13:39:13.277Z,1.10
2018-08-11T13:41:45.562Z,0.90
2018-08-11T13:44:15.091Z,1.00
2018-08-11T13:46:43.820Z,0.67
2018-08-11T13:49:12.567Z,0.83
2018-08-11T13:51:41.270Z,0.93
2018-08-11T13:54:09.964Z,1.00
2018-08-11T13:56:39.329Z,0.70
2018-08-11T13:59:08.562Z,0.77
2018-08-11T14:01:37.382Z,0.90
2018-08-11T14:04:05.966Z,0.90
2018-08-11T14:06:34.632Z,0.80
2018-08-11T14:09:04.449Z,0.80
2018-08-11T14:11:33.214Z,0.90
2018-08-11T14:14:01.889Z,0.80
2018-08-11T14:16:30.501Z,0.93
2018-08-11T14:18:59.166Z,0.70
2018-08-11T14:21:27.871Z,0.90
2018-08-11T14:23:56.497Z,0.90
2018-08-11T14:26:25.173Z,0.93
2018-08-11T14:28:53.793Z,1.03
2018-08-11T14:31:22.417Z,0.80
2018-08-11T14:33:51.214Z,0.70
2018-08-11T14:36:19.912Z,0.70
2018-08-11T14:38:48.575Z,1.03
2018-08-11T14:41:17.265Z,1.07
2018-08-11T14:43:46.057Z,0.90
2018-08-11T14:46:14.766Z,0.90
2018-08-11T14:48:43.398Z,1.00
2018-08-11T14:51:12.138Z,1.00
2018-08-11T14:53:40.747Z,0.90
2018-08-11T14:56:09.470Z,1.03
2018-08-11T14:58:38.135Z,0.73
2018-08-11T15:01:07.005Z,0.63
2018-08-11T15:03:35.631Z,0.90
2018-08-11T15:06:04.395Z,0.70
2018-08-11T15:08:32.981Z,0.83
2018-08-11T15:11:01.603Z,0.80
2018-08-11T15:13:30.191Z,0.77
2018-08-11T15:15:58.867Z,0.67
2018-08-11T15:18:27.482Z,0.80
2018-08-11T15:20:56.939Z,1.07
2018-08-11T15:23:25.565Z,0.77
2018-08-11T15:25:54.238Z,0.83
2018-08-11T15:28:23.014Z,0.87
2018-08-11T15:30:51.705Z,1.10
2018-08-11T15:33:20.302Z,0.80
2018-08-11T15:35:48.859Z,0.90
2018-08-11T15:38:17.451Z,0.90
2018-08-11T15:40:46.076Z,0.80
2018-08-11T15:43:14.681Z,0.70
2018-08-11T15:45:43.354Z,1.10
2018-08-11T15:48:12.026Z,0.80
2018-08-11T15:50:40.619Z,0.90
2018-08-11T15:53:09.849Z,0.80
2018-08-11T15:55:38.641Z,0.80
2018-08-11T15:58:07.334Z,1.20
2018-08-11T16:00:36.161Z,0.90
2018-08-11T16:03:04.852Z,1.10
2018-08-11T16:05:33.460Z,0.90
2018-08-11T16:08:02.134Z,0.90
2018-08-11T16:10:30.753Z,0.90
2018-08-11T16:12:59.381Z,1.00
2018-08-11T16:15:28.067Z,0.80
2018-08-11T16:17:56.757Z,1.40
2018-08-11T16:20:25.364Z,0.90
2018-08-11T16:22:54.042Z,0.73
2018-08-11T16:25:22.758Z,0.80
2018-08-11T16:27:51.390Z,0.80
2018-08-11T16:30:20.069Z,0.70
2018-08-11T16:32:48.684Z,0.80
2018-08-11T16:35:17.349Z,1.10
2018-08-11T16:37:45.985Z,0.87
2018-08-11T16:40:14.615Z,0.90
2018-08-11T16:42:43.349Z,0.80
2018-08-11T16:45:11.946Z,0.90
2018-08-11T16:47:40.590Z,1.83
2018-08-11T16:50:09.271Z,1.00
2018-08-11T16:52:38.038Z,0.90
2018-08-11T16:55:06.694Z,0.90
2018-08-11T16:57:35.270Z,1.10
2018-08-11T17:00:04.297Z,1.10
2018-08-11T17:02:32.875Z,1.00
2018-08-11T17:05:01.590Z,0.80
2018-08-11T17:07:30.266Z,1.00
2018-08-11T17:09:58.917Z,0.80
2018-08-11T17:12:27.482Z,0.90
2018-08-11T17:14:56.142Z,1.13
2018-08-11T17:17:24.782Z,0.80
2018-08-11T17:19:53.353Z,0.90
2018-08-11T17:22:21.902Z,1.00
2018-08-11T17:24:50.537Z,1.00
2018-08-11T17:27:19.213Z,0.87
2018-08-11T17:29:47.816Z,0.90
2018-08-11T17:32:16.788Z,1.00
2018-08-11T17:34:45.425Z,1.10
2018-08-11T17:37:14.006Z,0.97
2018-08-11T17:39:42.655Z,0.77
2018-08-11T17:42:11.329Z,1.00
2018-08-11T17:44:39.880Z,1.07
2018-08-11T17:47:08.550Z,0.80
2018-08-11T17:49:37.444Z,0.90
2018-08-11T17:52:06.222Z,1.03
2018-08-11T17:54:34.894Z,0.97
2018-08-11T17:57:03.476Z,1.00
2018-08-11T17:59:32.026Z,0.93
2018-08-11T18:02:00.593Z,0.93
2018-08-11T18:04:29.166Z,0.90
2018-08-11T18:06:57.816Z,1.00
2018-08-11T18:09:26.367Z,1.17
2018-08-11T18:11:54.939Z,0.97
2018-08-11T18:14:23.485Z,1.20
2018-08-11T18:16:52.085Z,0.90
2018-08-11T18:19:20.689Z,1.00
2018-08-11T18:21:49.286Z,1.00
2018-08-11T18:24:17.859Z,0.90
2018-08-11T18:26:46.500Z,0.83
2018-08-11T18:29:15.042Z,0.90
2018-08-11T18:31:43.675Z,0.90
2018-08-11T18:34:12.280Z,1.10
2018-08-11T18:36:40.842Z,1.20
2018-08-11T18:39:11.724Z,1.00
2018-08-11T18:41:40.325Z,1.00
2018-08-11T18:44:09.070Z,0.90
2018-08-11T18:46:38.016Z,1.10
2018-08-11T18:49:06.815Z,1.00
2018-08-11T18:51:35.785Z,0.97
2018-08-11T18:54:04.721Z,1.00
2018-08-11T18:56:33.489Z,0.93
2018-08-11T18:59:02.264Z,1.00
2018-08-11T19:01:30.917Z,1.00
2018-08-11T19:03:59.601Z,1.00
2018-08-11T19:06:28.491Z,1.10
2018-08-11T19:08:57.239Z,1.00
2018-08-11T19:11:25.908Z,0.87
2018-08-11T19:13:54.575Z,0.90
2018-08-11T19:16:23.290Z,1.47
2018-08-11T19:18:52.058Z,1.00
2018-08-11T19:21:20.718Z,1.30
2018-08-11T19:23:49.361Z,1.00
2018-08-11T19:26:18.017Z,1.17
2018-08-11T19:28:46.645Z,1.27
2018-08-11T19:31:15.272Z,1.60
2018-08-11T19:33:43.909Z,1.93
2018-08-11T19:36:12.557Z,1.40
2018-08-11T19:38:41.236Z,1.20
2018-08-11T19:41:09.841Z,1.10
2018-08-11T19:43:38.484Z,1.20
2018-08-11T19:46:07.254Z,1.27
2018-08-11T19:48:35.859Z,1.40
2018-08-11T19:51:04.485Z,1.17
2018-08-11T19:53:33.106Z,1.80
2018-08-11T19:56:01.779Z,1.30
2018-08-11T19:58:30.369Z,1.50
2018-08-11T20:00:58.985Z,1.53
2018-08-11T20:03:27.566Z,1.40
2018-08-11T20:05:56.225Z,1.60
2018-08-11T20:08:24.822Z,1.50
2018-08-11T20:10:53.417Z,1.20
2018-08-11T20:13:21.957Z,1.50
2018-08-11T20:15:50.567Z,1.60
2018-08-11T20:18:19.163Z,1.93
2018-08-11T20:20:47.756Z,1.87
2018-08-11T20:23:16.329Z,1.60
2018-08-11T20:25:44.913Z,1.67
2018-08-11T20:28:13.989Z,1.10
2018-08-11T20:30:42.606Z,1.20
2018-08-11T20:33:11.215Z,2.00
2018-08-11T20:35:39.806Z,1.70
2018-08-11T20:38:08.471Z,1.40
2018-08-11T20:40:38.062Z,1.40
2018-08-11T20:43:06.751Z,2.27
2018-08-11T20:45:35.593Z,1.30
2018-08-11T20:48:04.347Z,1.43
2018-08-11T20:50:32.973Z,1.93
2018-08-11T20:53:01.749Z,1.30
2018-08-11T20:55:30.338Z,1.30
2018-08-11T20:57:58.968Z,1.60
2018-08-11T21:00:27.634Z,1.93
2018-08-11T21:02:56.215Z,1.47
2018-08-11T21:05:24.765Z,1.60
2018-08-11T21:07:53.348Z,1.30
2018-08-11T21:10:21.964Z,1.93
2018-08-11T21:12:50.636Z,2.30
2018-08-11T21:15:19.238Z,2.40
2018-08-11T21:17:47.825Z,2.10
2018-08-11T21:20:16.421Z,1.90
2018-08-11T21:22:45.002Z,2.50
2018-08-11T21:25:13.582Z,2.27
2018-08-11T21:27:42.205Z,1.87
2018-08-11T21:30:12.864Z,2.83
2018-08-11T21:32:41.771Z,1.70
2018-08-11T21:35:10.433Z,1.50
2018-08-11T21:37:39.067Z,1.60
2018-08-11T21:40:10.103Z,1.07
2018-08-11T21:42:38.759Z,1.50
2018-08-11T21:45:07.764Z,2.07
2018-08-11T21:47:36.378Z,1.77
2018-08-11T21:50:05.645Z,1.70
2018-08-11T21:52:34.332Z,1.90
2018-08-11T21:55:02.885Z,1.53
2018-08-11T21:57:31.553Z,2.00
2018-08-11T22:00:00.165Z,2.17
2018-08-11T22:02:28.749Z,2.10
2018-08-11T22:04:57.373Z,1.70
2018-08-11T22:07:26.063Z,2.17
2018-08-11T22:09:54.630Z,2.30
2018-08-11T22:12:23.330Z,1.40
2018-08-11T22:14:51.971Z,1.87
2018-08-11T22:17:20.577Z,2.47
2018-08-11T22:19:49.221Z,1.27
2018-08-11T22:22:17.886Z,1.97
2018-08-11T22:24:46.476Z,1.80
2018-08-11T22:27:15.125Z,1.43
2018-08-11T22:29:43.710Z,1.60
2018-08-11T22:32:12.321Z,1.60
2018-08-11T22:34:40.877Z,1.87
2018-08-11T22:37:09.445Z,1.83
2018-08-11T22:39:38.108Z,1.70
2018-08-11T22:42:07.082Z,1.83
2018-08-11T22:44:35.637Z,1.60
2018-08-11T22:47:04.446Z,1.77
2018-08-11T22:49:32.984Z,1.90
2018-08-11T22:52:01.602Z,2.00
2018-08-11T22:54:30.169Z,1.50
2018-08-11T22:56:58.806Z,2.20
2018-08-11T22:59:27.343Z,2.10
2018-08-11T23:01:55.893Z,2.40
2018-08-11T23:04:24.527Z,2.90
2018-08-11T23:06:53.054Z,2.73
2018-08-11T23:09:21.613Z,2.70
2018-08-11T23:11:50.123Z,2.83
2018-08-11T23:14:18.768Z,2.97
2018-08-11T23:16:47.346Z,2.80
2018-08-11T23:19:15.926Z,2.00
2018-08-11T23:21:44.489Z,1.80
2018-08-11T23:24:13.048Z,1.90
2018-08-11T23:26:41.569Z,1.80
2018-08-11T23:29:10.101Z,1.70
2018-08-11T23:31:38.633Z,1.57
2018-08-11T23:34:07.225Z,2.00
2018-08-11T23:36:35.749Z,2.07
2018-08-11T23:39:06.092Z,1.83
2018-08-11T23:41:34.700Z,1.73
2018-08-11T23:44:03.337Z,1.70
2018-08-11T23:46:31.880Z,2.30
2018-08-11T23:49:00.552Z,2.10
2018-08-11T23:51:29.076Z,1.67
2018-08-11T23:53:57.669Z,2.10
2018-08-11T23:56:26.293Z,1.30
2018-08-11T23:58:54.900Z,1.50
